Time;durP1;ratioP1;P1;durP2;ratioP2;P2;SDS_P1;SDS_P2;PMS_P1;PMS_P2;Temp;Humidity;BMP_temperature;BMP_pressure;BME280_temperature;BME280_humidity;BME280_pressure;Samples;Min_cycle;Max_cycle;Signal;HPM_P1;HPM_P2
2021/09/10 00:00:42;;;;;;;7.00;4.60;;;;;;;26.51;49.14;100810.19;5007944;28;20168;-75
2021/09/10 00:03:08;;;;;;;6.03;4.50;;;;;;;26.51;49.60;100809.31;5008889;28;20140;-75
2021/09/10 00:05:35;;;;;;;6.47;4.30;;;;;;;26.51;49.55;100812.09;5009816;28;20394;-75
2021/09/10 00:08:02;;;;;;;5.15;4.18;;;;;;;26.50;49.39;100808.47;5006150;28;20053;-75
2021/09/10 00:10:31;;;;;;;8.05;4.85;;;;;;;26.51;49.88;100809.31;5009240;28;20045;-75
2021/09/10 00:12:58;;;;;;;6.25;4.45;;;;;;;26.52;49.65;100806.31;5004714;28;20063;-75
2021/09/10 00:15:26;;;;;;;8.25;5.13;;;;;;;26.52;49.27;100811.00;5004089;28;20054;-75
2021/09/10 00:17:53;;;;;;;7.75;5.68;;;;;;;26.51;49.95;100809.31;5006877;28;20132;-76
2021/09/10 00:24:00;;;;;;;5.30;3.92;;;;;;;26.46;49.56;100804.34;5005597;28;20456;-75
2021/09/10 00:26:27;;;;;;;6.00;4.78;;;;;;;26.49;49.25;100806.75;5023377;28;20133;-75
2021/09/10 00:28:54;;;;;;;6.93;4.55;;;;;;;26.50;49.19;100797.31;5012771;28;20061;-75
2021/09/10 00:31:20;;;;;;;6.03;4.75;;;;;;;26.51;49.65;100807.41;5009601;28;20054;-75
2021/09/10 00:33:47;;;;;;;6.53;4.93;;;;;;;26.51;49.04;100804.63;5007563;28;20378;-75
2021/09/10 00:36:14;;;;;;;6.20;4.82;;;;;;;26.53;49.35;100807.16;5009730;28;20046;-75
2021/09/10 00:38:40;;;;;;;6.55;4.55;;;;;;;26.54;49.30;100803.31;5008081;28;20053;-75
2021/09/10 00:41:07;;;;;;;7.57;5.10;;;;;;;26.54;49.79;100806.09;5009668;28;20133;-75
2021/09/10 00:43:33;;;;;;;7.28;4.75;;;;;;;26.55;49.69;100799.47;5008001;28;20081;-75
2021/09/10 00:46:01;;;;;;;6.85;4.60;;;;;;;26.55;49.65;100796.69;5006951;28;20050;-75
2021/09/10 00:48:28;;;;;;;7.05;4.50;;;;;;;26.56;49.66;100803.97;5004315;28;20485;-75
2021/09/10 00:50:55;;;;;;;6.47;4.50;;;;;;;26.57;49.44;100805.69;5008226;28;20107;-76
2021/09/10 00:53:23;;;;;;;7.13;4.22;;;;;;;26.57;49.41;100805.69;5006429;28;20057;-75
2021/09/10 00:55:50;;;;;;;5.20;4.20;;;;;;;26.58;49.16;100798.19;5009658;28;20115;-76
2021/09/10 00:58:16;;;;;;;6.80;4.80;;;;;;;26.59;49.71;100802.72;5021689;28;20066;-76
2021/09/10 01:00:43;;;;;;;6.82;4.75;;;;;;;26.59;49.38;100798.00;5003403;28;20080;-75
2021/09/10 01:03:12;;;;;;;5.30;4.05;;;;;;;26.60;49.57;100796.94;5007589;28;20050;-75
2021/09/10 01:05:43;;;;;;;5.85;4.35;;;;;;;26.62;49.89;100805.91;5010160;28;20112;-75
2021/09/10 01:08:13;;;;;;;6.75;4.55;;;;;;;26.58;50.16;100796.28;5004845;28;20049;-76
2021/09/10 01:10:41;;;;;;;5.93;4.40;;;;;;;26.61;50.08;100795.84;4997467;28;20081;-75
2021/09/10 01:13:09;;;;;;;6.20;4.20;;;;;;;26.60;49.98;100805.28;5005374;28;20077;-76
2021/09/10 01:15:36;;;;;;;5.40;4.15;;;;;;;26.60;49.35;100802.50;5006928;28;20038;-76
2021/09/10 01:18:03;;;;;;;6.57;4.90;;;;;;;26.60;49.86;100796.06;4997123;28;20547;-76
2021/09/10 01:20:29;;;;;;;7.43;4.47;;;;;;;26.59;49.45;100806.34;5001794;28;20054;-75
2021/09/10 01:23:27;;;;;;;5.30;4.18;;;;;;;26.60;50.09;100796.06;5008162;28;20828;-76
2021/09/10 01:25:54;;;;;;;5.88;3.95;;;;;;;26.57;50.11;100802.91;5003176;28;20408;-75
2021/09/10 01:28:21;;;;;;;5.15;3.90;;;;;;;26.58;49.71;100804.63;5009089;28;20100;-76
2021/09/10 01:30:48;;;;;;;5.60;3.95;;;;;;;26.58;49.82;100804.63;5005513;28;20046;-76
2021/09/10 01:33:15;;;;;;;5.00;4.00;;;;;;;26.57;49.82;100791.78;5000265;28;20060;-76
2021/09/10 01:35:41;;;;;;;7.45;4.55;;;;;;;26.58;49.59;100801.84;5007412;28;20046;-76
2021/09/10 01:38:08;;;;;;;5.45;4.00;;;;;;;26.57;49.66;100799.28;5007471;28;20481;-75
2021/09/10 01:40:37;;;;;;;5.82;3.80;;;;;;;26.59;49.33;100802.72;5003434;28;20078;-75
2021/09/10 01:43:05;;;;;;;6.35;4.43;;;;;;;26.57;49.81;100804.84;5008055;28;20493;-76
2021/09/10 01:45:33;;;;;;;6.25;4.25;;;;;;;26.56;49.45;100797.53;5008411;28;20073;-75
2021/09/10 01:47:59;;;;;;;5.70;4.32;;;;;;;26.55;49.78;100802.25;4999276;28;20613;-76
2021/09/10 01:50:27;;;;;;;7.20;4.60;;;;;;;26.55;49.86;100812.53;5010189;28;20134;-76
2021/09/10 01:52:53;;;;;;;6.38;4.82;;;;;;;26.53;49.80;100798.81;5004084;28;20097;-75
2021/09/10 01:55:20;;;;;;;7.68;5.07;;;;;;;26.53;50.08;100807.16;5002218;28;20054;-76
2021/09/10 01:57:49;;;;;;;7.72;4.85;;;;;;;26.53;49.71;100798.81;5005131;28;20073;-75
2021/09/10 02:00:17;;;;;;;6.30;4.55;;;;;;;26.52;49.81;100802.66;5002520;28;20051;-76
2021/09/10 02:02:44;;;;;;;7.80;4.75;;;;;;;26.51;49.59;100801.81;5002585;28;20107;-76
2021/09/10 02:05:11;;;;;;;5.95;4.90;;;;;;;26.50;49.61;100802.03;5007136;28;20054;-75
2021/09/10 02:07:38;;;;;;;7.75;4.97;;;;;;;26.50;49.52;100796.47;5006906;28;20085;-75
2021/09/10 02:10:08;;;;;;;8.25;5.05;;;;;;;26.50;49.39;100805.69;5004804;28;20085;-76
2021/09/10 02:12:36;;;;;;;7.75;5.15;;;;;;;26.47;49.53;100808.00;5016494;28;20084;-75
2021/09/10 02:15:04;;;;;;;6.60;4.35;;;;;;;26.47;49.91;100805.22;5006771;28;20527;-75
2021/09/10 02:17:31;;;;;;;6.18;4.80;;;;;;;26.45;49.77;100804.56;5003816;28;20042;-75
2021/09/10 02:19:57;;;;;;;7.60;4.82;;;;;;;26.43;49.83;100807.56;5012011;28;20132;-75
2021/09/10 02:22:24;;;;;;;7.07;5.05;;;;;;;26.43;49.67;100806.72;4999994;28;20050;-76
2021/09/10 02:24:50;;;;;;;7.60;5.28;;;;;;;26.42;49.95;100799.44;5011687;28;20053;-75
2021/09/10 02:27:17;;;;;;;7.18;5.18;;;;;;;26.42;49.67;100796.63;5004585;28;20050;-76
2021/09/10 02:29:44;;;;;;;7.95;5.53;;;;;;;26.40;49.92;100802.41;5012156;28;20073;-75
2021/09/10 02:32:10;;;;;;;6.97;5.22;;;;;;;26.39;49.55;100797.03;5007549;28;20452;-75
2021/09/10 02:34:37;;;;;;;7.25;5.30;;;;;;;26.38;49.94;100796.19;5015675;28;20057;-75
2021/09/10 02:37:03;;;;;;;7.82;5.90;;;;;;;26.36;49.73;100801.09;5007458;28;20456;-75
2021/09/10 02:39:30;;;;;;;7.85;5.28;;;;;;;26.36;49.51;100791.88;5010977;28;20556;-75
2021/09/10 02:41:57;;;;;;;7.45;5.30;;;;;;;26.35;49.50;100790.19;5012748;28;20071;-76
2021/09/10 02:44:23;;;;;;;7.63;5.60;;;;;;;26.34;49.67;100788.47;5013463;28;20057;-75
2021/09/10 02:46:51;;;;;;;8.73;5.55;;;;;;;26.32;49.65;100785.88;5000830;28;20646;-75
2021/09/10 02:49:18;;;;;;;7.13;5.65;;;;;;;26.29;49.97;100780.72;5011297;28;20450;-75
2021/09/10 02:51:44;;;;;;;8.38;5.82;;;;;;;26.29;49.25;100783.50;5009346;28;20073;-75
2021/09/10 02:54:11;;;;;;;6.93;5.22;;;;;;;26.29;49.50;100791.00;5009995;28;20065;-76
2021/09/10 02:56:38;;;;;;;7.05;5.18;;;;;;;26.27;49.56;100782.00;5032893;28;20075;-75
2021/09/10 02:59:04;;;;;;;7.25;5.55;;;;;;;26.26;49.28;100789.50;5008070;28;20077;-76
2021/09/10 03:01:31;;;;;;;8.35;5.47;;;;;;;26.26;49.67;100788.63;5015865;28;20054;-75
2021/09/10 03:03:58;;;;;;;6.88;5.47;;;;;;;26.23;49.42;100783.44;5010992;28;20054;-75
2021/09/10 03:06:24;;;;;;;7.38;5.60;;;;;;;26.22;49.52;100787.28;5006920;28;20038;-76
2021/09/10 03:08:51;;;;;;;7.85;5.53;;;;;;;26.21;49.38;100789.22;5010659;28;20057;-75
2021/09/10 03:11:17;;;;;;;8.05;5.68;;;;;;;26.20;49.59;100794.97;5004603;28;20053;-75
2021/09/10 03:13:44;;;;;;;7.25;5.30;;;;;;;26.18;49.67;100795.19;5012858;28;20054;-75
2021/09/10 03:16:10;;;;;;;7.55;5.35;;;;;;;26.18;49.22;100788.78;5013229;28;20077;-75
2021/09/10 03:18:37;;;;;;;7.25;5.07;;;;;;;26.15;50.40;100790.91;5011085;28;20060;-75
2021/09/10 03:21:04;;;;;;;7.07;4.90;;;;;;;26.16;49.55;100791.75;5015596;28;20051;-76
2021/09/10 03:23:30;;;;;;;6.97;5.20;;;;;;;26.14;49.76;100785.53;5014071;28;20045;-75
2021/09/10 03:25:57;;;;;;;6.95;5.47;;;;;;;26.14;49.57;100791.09;5009137;28;20046;-75
2021/09/10 03:28:24;;;;;;;6.88;5.38;;;;;;;26.12;49.72;100785.72;5012214;28;20080;-75
2021/09/10 03:30:50;;;;;;;6.88;5.15;;;;;;;26.10;50.02;100785.09;5015134;28;20450;-75
2021/09/10 03:33:17;;;;;;;6.05;5.18;;;;;;;26.10;49.88;100787.03;5016106;28;20076;-75
2021/09/10 03:35:44;;;;;;;7.13;5.60;;;;;;;26.09;49.26;100782.53;5004261;28;20066;-75
2021/09/10 03:38:11;;;;;;;6.93;5.10;;;;;;;26.06;49.51;100782.91;5012381;28;20057;-76
2021/09/10 03:40:38;;;;;;;8.55;5.65;;;;;;;26.05;49.48;100784.84;5014924;28;20128;-75
2021/09/10 03:43:07;;;;;;;6.53;5.57;;;;;;;26.04;49.88;100776.69;5008290;28;20057;-76
2021/09/10 03:45:34;;;;;;;8.18;5.10;;;;;;;26.04;49.40;100779.47;5010911;28;20096;-75
2021/09/10 03:48:02;;;;;;;7.80;5.22;;;;;;;26.02;49.40;100781.63;5016020;28;20100;-75
2021/09/10 03:50:29;;;;;;;7.25;5.55;;;;;;;26.00;49.52;100778.19;5014049;28;20049;-75
2021/09/10 03:52:55;;;;;;;6.95;5.47;;;;;;;26.00;49.82;100779.03;5012051;28;20145;-75
2021/09/10 03:55:22;;;;;;;9.10;5.20;;;;;;;25.98;49.85;100775.59;5010178;28;20050;-75
2021/09/10 03:57:49;;;;;;;7.32;5.22;;;;;;;25.98;49.67;100778.38;5015512;28;20497;-75
2021/09/10 04:00:15;;;;;;;7.72;5.55;;;;;;;25.98;49.60;100778.38;5012035;28;20124;-75
2021/09/10 04:02:43;;;;;;;9.75;5.68;;;;;;;25.96;49.99;100776.84;5020355;28;20131;-75
2021/09/10 04:05:10;;;;;;;7.68;5.28;;;;;;;25.95;49.75;100773.22;5009595;28;20472;-76
2021/09/10 04:07:37;;;;;;;8.10;5.65;;;;;;;25.95;49.96;100775.13;5007640;28;20088;-75
2021/09/10 04:10:05;;;;;;;8.20;5.28;;;;;;;25.94;50.05;100779.88;5012453;28;20061;-75
2021/09/10 04:12:32;;;;;;;8.73;5.75;;;;;;;25.91;49.96;100768.28;5010104;28;20141;-76
2021/09/10 04:14:58;;;;;;;7.35;5.65;;;;;;;25.89;49.88;100774.03;5009187;28;20132;-76
2021/09/10 04:17:25;;;;;;;6.75;5.03;;;;;;;25.88;49.56;100772.31;5006915;28;20077;-76
2021/09/10 04:19:51;;;;;;;7.35;5.65;;;;;;;25.86;49.09;100763.31;5003712;28;20053;-76
2021/09/10 04:22:19;;;;;;;8.25;5.53;;;;;;;25.85;50.10;100763.53;5013449;28;20046;-76
2021/09/10 04:24:46;;;;;;;6.45;5.15;;;;;;;25.82;49.95;100770.34;5010542;28;20069;-76
2021/09/10 04:27:13;;;;;;;7.47;5.80;;;;;;;25.80;50.35;100766.91;5010294;28;20413;-76
2021/09/10 04:29:39;;;;;;;7.18;5.43;;;;;;;25.77;49.76;100773.75;4999870;28;20132;-75
2021/09/10 04:32:06;;;;;;;6.75;5.22;;;;;;;25.76;49.73;100771.19;5003930;28;20049;-75
2021/09/10 04:34:33;;;;;;;6.50;5.28;;;;;;;25.73;50.45;100772.44;5007934;28;20062;-76
2021/09/10 04:37:01;;;;;;;10.55;5.38;;;;;;;25.73;49.82;100778.00;5004471;28;20045;-75
2021/09/10 04:39:27;;;;;;;7.35;5.40;;;;;;;25.71;50.04;100779.25;5011905;28;20085;-76
2021/09/10 04:41:54;;;;;;;6.63;5.28;;;;;;;25.70;50.20;100778.41;5009440;28;20159;-76
2021/09/10 04:44:20;;;;;;;7.60;5.20;;;;;;;25.70;49.82;100783.09;5011013;28;20115;-76
2021/09/10 04:46:47;;;;;;;6.57;5.10;;;;;;;25.69;50.02;100787.81;5003426;28;20512;-76
2021/09/10 04:49:14;;;;;;;6.90;5.22;;;;;;;25.68;49.89;100788.88;5009351;28;20078;-76
2021/09/10 04:51:40;;;;;;;7.38;5.28;;;;;;;25.68;50.07;100785.25;5013714;28;20782;-75
2021/09/10 04:54:07;;;;;;;7.70;5.03;;;;;;;25.67;50.22;100786.31;5013445;28;20073;-76
2021/09/10 04:56:34;;;;;;;6.82;4.93;;;;;;;25.65;49.86;100793.97;5007155;28;20050;-76
2021/09/10 04:59:02;;;;;;;6.85;4.97;;;;;;;25.64;50.23;100798.69;5005809;28;20127;-76
2021/09/10 05:01:29;;;;;;;8.35;5.90;;;;;;;25.63;50.17;100796.94;5009475;28;20046;-76
2021/09/10 05:03:56;;;;;;;6.38;5.00;;;;;;;25.62;50.09;100802.72;5013724;28;20136;-76
2021/09/10 05:06:24;;;;;;;6.28;4.93;;;;;;;25.61;50.05;100801.84;5011961;28;20057;-73
2021/09/10 05:08:50;;;;;;;7.65;5.00;;;;;;;25.61;49.98;100801.03;5013963;28;20057;-76
2021/09/10 05:11:17;;;;;;;6.80;5.38;;;;;;;25.61;50.33;100803.81;5018765;28;20081;-74
2021/09/10 05:13:43;;;;;;;7.43;6.13;;;;;;;25.60;50.30;100807.63;5009591;28;20049;-74
2021/09/10 05:16:10;;;;;;;7.90;4.85;;;;;;;25.60;50.46;100807.63;5009470;28;20058;-75
2021/09/10 05:18:37;;;;;;;6.57;5.28;;;;;;;25.58;50.11;100810.59;5014903;28;20053;-75
2021/09/10 05:21:03;;;;;;;7.05;5.13;;;;;;;25.56;50.26;100806.28;5012864;28;20057;-75
2021/09/10 05:23:30;;;;;;;6.20;4.85;;;;;;;25.57;50.37;100813.56;5021212;28;20066;-75
2021/09/10 05:25:57;;;;;;;6.20;5.00;;;;;;;25.55;50.00;100808.19;5016939;28;20123;-76
2021/09/10 05:28:24;;;;;;;7.32;5.82;;;;;;;25.54;50.39;100809.25;5009832;28;20076;-76
2021/09/10 05:30:51;;;;;;;6.85;5.45;;;;;;;25.54;50.28;100812.03;5004534;28;20085;-76
2021/09/10 05:33:18;;;;;;;6.38;5.38;;;;;;;25.54;50.05;100808.38;5019358;28;20108;-76
2021/09/10 05:35:44;;;;;;;6.93;4.95;;;;;;;25.52;50.11;100805.84;5006137;28;20058;-77
2021/09/10 05:38:11;;;;;;;6.47;5.13;;;;;;;25.53;50.36;100804.75;5000256;28;20130;-76
2021/09/10 05:40:37;;;;;;;8.30;5.60;;;;;;;25.52;50.35;100814.19;5011643;28;20100;-76
2021/09/10 05:43:04;;;;;;;7.13;5.07;;;;;;;25.51;50.29;100820.78;5003550;28;20509;-75
2021/09/10 05:45:31;;;;;;;7.53;5.20;;;;;;;25.52;50.04;100818.88;5019066;28;20469;-75
2021/09/10 05:47:57;;;;;;;6.90;4.95;;;;;;;25.50;50.03;100826.53;5043263;28;20080;-75
2021/09/10 05:50:24;;;;;;;7.93;5.35;;;;;;;25.50;50.46;100824.63;5010624;28;20049;-75
2021/09/10 05:52:51;;;;;;;7.80;5.55;;;;;;;25.50;49.88;100824.63;5008733;28;20165;-75
2021/09/10 05:55:17;;;;;;;6.50;5.10;;;;;;;25.50;50.55;100826.53;5023480;28;20049;-75
2021/09/10 05:57:44;;;;;;;7.93;5.22;;;;;;;25.49;50.24;100830.38;5012149;28;20073;-75
2021/09/10 06:00:11;;;;;;;6.70;4.95;;;;;;;25.48;50.18;100832.31;5021141;28;20118;-75
2021/09/10 06:02:39;;;;;;;6.07;4.82;;;;;;;25.49;50.30;100834.03;5027431;28;20065;-75
2021/09/10 06:05:07;;;;;;;6.72;5.28;;;;;;;25.49;50.19;100841.50;5028732;28;20067;-75
2021/09/10 06:07:33;;;;;;;6.93;4.97;;;;;;;25.48;50.54;100845.34;5016654;28;20754;-75
2021/09/10 06:10:00;;;;;;;6.60;4.82;;;;;;;25.47;50.01;100838.06;5020375;28;20053;-75
2021/09/10 06:12:27;;;;;;;7.90;5.05;;;;;;;25.46;50.48;100837.19;5026395;28;20074;-75
2021/09/10 06:14:54;;;;;;;6.80;5.10;;;;;;;25.46;50.79;100839.97;5011588;28;20058;-74
2021/09/10 06:17:20;;;;;;;7.00;4.72;;;;;;;25.46;50.73;100850.22;5011590;28;20046;-75
2021/09/10 06:19:51;;;;;;;6.43;5.00;;;;;;;25.46;50.56;100851.09;5014725;28;20100;-74
2021/09/10 06:22:18;;;;;;;6.43;5.15;;;;;;;25.44;50.75;100856.00;5028973;28;20068;-75
2021/09/10 06:24:44;;;;;;;7.22;4.65;;;;;;;25.45;50.70;100851.31;5021429;28;20046;-75
2021/09/10 06:27:11;;;;;;;7.45;5.55;;;;;;;25.43;50.54;100859.84;5040853;28;20050;-75
2021/09/10 06:29:37;;;;;;;6.95;5.40;;;;;;;25.43;50.56;100854.28;5026053;28;20405;-74
2021/09/10 06:32:04;;;;;;;6.68;5.28;;;;;;;25.44;51.06;100869.06;5029331;28;20810;-74
2021/09/10 06:34:31;;;;;;;7.47;5.68;;;;;;;25.44;51.20;100869.06;5011974;28;20555;-74
2021/09/10 06:36:58;;;;;;;8.02;5.80;;;;;;;25.44;51.04;100871.84;5025486;28;20111;-74
2021/09/10 06:39:24;;;;;;;8.43;5.97;;;;;;;25.44;51.35;100867.13;5011722;28;20137;-74
2021/09/10 06:41:51;;;;;;;6.68;5.40;;;;;;;25.45;51.28;100873.56;5026350;28;20139;-74
2021/09/10 06:44:17;;;;;;;8.73;5.55;;;;;;;25.46;51.06;100878.91;5016375;28;20064;-74
2021/09/10 06:46:44;;;;;;;7.13;5.30;;;;;;;25.48;51.80;100876.78;5021528;28;20046;-73
2021/09/10 06:49:10;;;;;;;6.80;5.25;;;;;;;25.51;51.75;100870.84;5020635;28;20104;-73
2021/09/10 06:51:37;;;;;;;8.70;5.03;;;;;;;25.55;52.09;100869.34;5012571;28;20116;-74
2021/09/10 06:54:04;;;;;;;7.03;4.97;;;;;;;25.62;53.11;100881.44;5030479;28;20780;-73
2021/09/10 06:56:30;;;;;;;5.95;4.78;;;;;;;25.72;52.71;100883.88;5012153;28;20069;-73
2021/09/10 06:58:57;;;;;;;8.15;4.95;;;;;;;25.84;53.26;100885.06;5020435;28;20505;-73
2021/09/10 07:01:23;;;;;;;7.75;5.30;;;;;;;26.00;53.33;100883.91;5018530;28;20662;-73
2021/09/10 07:03:50;;;;;;;6.97;4.95;;;;;;;26.15;53.53;100881.88;5011338;28;20057;-73
2021/09/10 07:06:17;;;;;;;6.10;4.68;;;;;;;26.29;53.12;100886.50;5011441;28;20061;-74
2021/09/10 07:08:44;;;;;;;6.13;4.93;;;;;;;26.43;52.82;100893.88;5011139;28;20108;-74
2021/09/10 07:11:10;;;;;;;6.95;4.63;;;;;;;26.53;51.94;100888.78;5012513;28;20069;-74
2021/09/10 07:13:37;;;;;;;7.85;4.60;;;;;;;26.63;51.27;100890.34;5013115;28;20050;-74
2021/09/10 07:16:04;;;;;;;7.50;4.18;;;;;;;26.71;51.32;100896.59;5017096;28;20108;-74
2021/09/10 07:18:31;;;;;;;5.53;4.10;;;;;;;26.76;50.60;100896.00;5010747;28;20053;-74
2021/09/10 07:20:58;;;;;;;5.60;4.15;;;;;;;26.79;50.54;100896.41;5007329;28;20152;-74
2021/09/10 07:23:25;;;;;;;6.55;4.30;;;;;;;26.81;50.75;100899.00;5023043;28;20555;-74
2021/09/10 07:25:51;;;;;;;7.05;4.43;;;;;;;26.83;50.52;100902.44;5012201;28;20137;-75
2021/09/10 07:28:18;;;;;;;5.85;3.97;;;;;;;26.84;50.40;100904.16;5017149;28;20074;-75
2021/09/10 07:30:45;;;;;;;5.50;4.00;;;;;;;26.85;50.37;100906.72;5017952;28;20069;-74
2021/09/10 07:33:12;;;;;;;5.65;4.13;;;;;;;26.87;50.32;100898.16;5010245;28;20058;-74
2021/09/10 07:35:39;;;;;;;5.57;4.15;;;;;;;26.87;50.08;100910.16;5000555;28;20100;-74
2021/09/10 07:38:05;;;;;;;6.82;4.53;;;;;;;26.88;50.14;100897.09;5009644;28;20053;-74
2021/09/10 07:40:32;;;;;;;6.07;4.03;;;;;;;26.88;49.72;100906.31;5010077;28;20073;-74
2021/09/10 07:42:59;;;;;;;6.60;4.72;;;;;;;26.89;49.47;100904.41;5018144;28;20104;-74
2021/09/10 07:45:25;;;;;;;7.28;4.82;;;;;;;26.89;49.93;100908.03;5008270;28;20046;-75
2021/09/10 07:47:52;;;;;;;6.32;4.20;;;;;;;26.88;50.01;100906.31;5009022;28;20100;-74
2021/09/10 07:50:18;;;;;;;6.45;4.28;;;;;;;26.88;49.89;100908.25;5009485;28;20096;-74
2021/09/10 07:52:45;;;;;;;7.40;4.93;;;;;;;26.88;49.55;100905.47;5005927;28;20128;-74
2021/09/10 07:55:12;;;;;;;5.85;4.18;;;;;;;26.87;49.41;100912.09;5007610;28;20420;-74
2021/09/10 07:57:38;;;;;;;7.03;4.55;;;;;;;26.86;49.82;100905.66;5009823;28;20053;-74
2021/09/10 08:00:06;;;;;;;5.90;4.70;;;;;;;26.87;49.65;100910.16;5012923;28;20081;-76
2021/09/10 08:02:34;;;;;;;7.45;4.60;;;;;;;26.85;49.48;100917.88;5008472;28;20046;-73
2021/09/10 08:05:02;;;;;;;5.85;4.25;;;;;;;26.85;49.59;100923.44;5003813;28;20057;-73
2021/09/10 08:07:28;;;;;;;5.82;4.40;;;;;;;26.85;49.46;100920.66;5007962;28;20049;-74
2021/09/10 08:09:59;;;;;;;6.38;4.65;;;;;;;26.85;49.78;100931.81;4997288;28;20050;-74
2021/09/10 08:12:27;;;;;;;5.43;4.00;;;;;;;26.85;49.75;100928.16;5009723;28;20389;-74
2021/09/10 08:14:54;;;;;;;6.07;4.10;;;;;;;26.84;49.77;100921.75;5012048;28;20054;-74
2021/09/10 08:17:20;;;;;;;6.82;4.38;;;;;;;26.84;49.67;100926.47;5012796;28;20037;-74
2021/09/10 08:19:50;;;;;;;6.57;4.07;;;;;;;26.88;49.54;100927.75;5003755;28;20073;-73
2021/09/10 08:22:18;;;;;;;6.47;4.40;;;;;;;26.86;49.60;100927.94;5009615;28;20152;-74
2021/09/10 08:24:56;;;;;;;6.00;4.25;;;;;;;26.85;49.58;100934.59;5001496;28;20048;-73
2021/09/10 08:27:23;;;;;;;5.50;4.05;;;;;;;26.85;49.55;100925.38;5004289;28;20042;-73
2021/09/10 08:29:52;;;;;;;6.40;4.30;;;;;;;26.86;49.41;100935.44;5011061;28;20060;-73
2021/09/10 08:32:19;;;;;;;5.80;3.63;;;;;;;26.85;49.24;100930.94;5012856;28;20046;-74
2021/09/10 08:34:46;;;;;;;5.45;3.65;;;;;;;26.85;49.35;100934.59;5010067;28;20073;-73
2021/09/10 08:37:12;;;;;;;6.90;3.90;;;;;;;26.84;49.80;100935.69;5008837;28;20049;-74
2021/09/10 08:39:39;;;;;;;4.72;3.67;;;;;;;26.84;49.27;100934.81;4999225;28;20141;-73
2021/09/10 08:42:07;;;;;;;6.00;4.10;;;;;;;26.87;49.47;100948.31;5009877;28;20490;-74
2021/09/10 08:44:37;;;;;;;6.10;3.90;;;;;;;26.87;49.18;100948.31;5009047;28;20453;-73
2021/09/10 08:47:04;;;;;;;5.25;3.60;;;;;;;26.86;49.61;100941.88;5004843;28;20068;-74
2021/09/10 08:49:32;;;;;;;5.20;3.67;;;;;;;26.87;49.82;100951.09;5007290;28;20046;-73
2021/09/10 08:51:59;;;;;;;5.22;3.40;;;;;;;26.88;49.76;100950.03;5006992;28;20061;-74
2021/09/10 08:54:25;;;;;;;5.65;3.25;;;;;;;26.88;50.08;100950.91;5016702;28;20069;-72
2021/09/10 08:56:53;;;;;;;5.00;3.30;;;;;;;26.91;49.93;100949.66;4996898;28;20413;-74
2021/09/10 08:59:21;;;;;;;5.88;2.97;;;;;;;26.95;49.79;100956.53;5017214;28;20085;-73
2021/09/10 09:01:56;;;;;;;5.72;3.30;;;;;;;27.00;49.18;100953.16;5013588;28;20050;-76
2021/09/10 09:04:29;;;;;;;4.15;2.80;;;;;;;27.02;49.32;100953.78;4995273;28;20146;-76
2021/09/10 09:06:57;;;;;;;5.00;2.88;;;;;;;27.00;49.39;100962.38;5022191;28;20049;-75
2021/09/10 09:09:55;;;;;;;4.95;3.05;;;;;;;26.99;49.38;100951.41;5009880;28;20513;-75
2021/09/10 09:12:30;;;;;;;4.85;2.78;;;;;;;27.07;49.18;100954.03;4999981;28;20517;-74
2021/09/10 09:15:03;;;;;;;4.85;2.90;;;;;;;27.09;49.16;100951.91;5005536;28;20054;-74
2021/09/10 09:17:29;;;;;;;;;;;;;;;26.81;49.70;100950.00;5026075;28;20111;-74
2021/09/10 09:20:16;;;;;;;4.93;2.47;;;;;;;27.09;49.09;100952.75;5021512;28;19956;-74
2021/09/10 09:23:09;;;;;;;4.38;2.70;;;;;;;27.12;48.55;100960.69;5001580;28;20081;-73
2021/09/10 09:25:42;;;;;;;3.90;2.65;;;;;;;27.15;48.83;100957.50;5005060;28;20054;-73
2021/09/10 09:28:31;;;;;;;4.03;2.83;;;;;;;27.18;48.61;100961.78;5024384;28;20136;-74
2021/09/10 09:31:05;;;;;;;4.07;2.38;;;;;;;27.17;48.56;100960.94;5015296;28;20169;-74
2021/09/10 09:33:40;;;;;;;3.90;2.67;;;;;;;27.19;48.59;100958.78;5008605;28;20054;-73
2021/09/10 09:36:12;;;;;;;3.75;2.40;;;;;;;27.21;48.31;100964.16;5007928;28;20054;-74
2021/09/10 09:38:41;;;;;;;3.30;2.33;;;;;;;27.19;48.37;100961.56;5006995;28;20132;-73
2021/09/10 09:41:19;;;;;;;3.20;2.15;;;;;;;27.24;48.32;100975.78;5009422;28;20088;-74
2021/09/10 09:43:49;;;;;;;4.18;2.38;;;;;;;27.24;48.62;100969.34;5013237;28;21387;-74
2021/09/10 09:46:19;;;;;;;5.18;2.65;;;;;;;27.28;48.45;100973.41;5009757;28;20512;-74
2021/09/10 09:48:51;;;;;;;4.05;2.38;;;;;;;27.31;48.40;100984.16;5012836;28;20593;-74
2021/09/10 09:51:20;;;;;;;3.67;2.20;;;;;;;27.27;48.48;100975.31;5004690;28;20056;-73
2021/09/10 09:53:48;;;;;;;3.45;2.05;;;;;;;27.31;47.95;100970.22;5008214;28;20073;-74
2021/09/10 09:56:15;;;;;;;4.53;2.33;;;;;;;27.31;48.11;100970.22;5012105;28;20550;-75
2021/09/10 09:58:42;;;;;;;4.30;2.40;;;;;;;27.33;47.98;100979.22;5002645;28;20136;-76
2021/09/10 10:01:12;;;;;;;3.55;2.30;;;;;;;27.34;47.81;100986.53;5003442;28;20057;-73
2021/09/10 10:03:40;;;;;;;3.97;2.28;;;;;;;27.35;48.17;100987.38;5007203;28;20112;-74
2021/09/10 10:06:13;;;;;;;4.03;2.53;;;;;;;27.39;47.82;100994.25;5030681;28;20045;-75
2021/09/10 10:08:55;;;;;;;4.40;2.38;;;;;;;27.38;47.59;100986.97;5020311;28;20054;-74
2021/09/10 10:11:23;;;;;;;3.25;2.08;;;;;;;27.31;47.62;100984.16;5004954;28;20057;-74
2021/09/10 10:14:02;;;;;;;3.22;1.90;;;;;;;27.36;47.08;100991.88;5007567;28;20065;-73
2021/09/10 10:16:36;;;;;;;3.50;2.00;;;;;;;27.33;47.06;101001.53;5000884;28;20073;-72
2021/09/10 10:19:08;;;;;;;3.03;1.98;;;;;;;27.28;47.80;101006.88;5010496;28;20410;-72
2021/09/10 10:22:10;;;;;;;3.40;2.20;;;;;;;27.23;48.11;101001.06;5009564;28;20045;-72
2021/09/10 10:24:44;;;;;;;4.28;2.50;;;;;;;27.23;48.20;101006.63;5019825;28;20050;-72
2021/09/10 10:27:36;;;;;;;4.88;2.58;;;;;;;27.19;48.41;101005.31;5010517;28;20046;-72
2021/09/10 10:30:15;;;;;;;4.35;2.95;;;;;;;27.16;48.26;101000.19;5009544;28;20050;-75
2021/09/10 10:32:44;;;;;;;6.10;2.85;;;;;;;27.13;48.63;101001.44;5009588;28;20125;-75
2021/09/10 10:35:23;;;;;;;4.53;2.65;;;;;;;27.13;48.96;100987.50;5011663;28;20057;-74
2021/09/10 10:38:05;;;;;;;4.68;2.63;;;;;;;27.11;49.77;100998.00;4999784;28;20103;-72
2021/09/10 10:40:40;;;;;;;3.67;2.53;;;;;;;27.05;49.16;100989.59;5025215;28;20073;-73
2021/09/10 10:43:25;;;;;;;4.57;2.58;;;;;;;27.05;49.50;100984.03;5007427;28;20606;-72
2021/09/10 10:46:02;;;;;;;4.50;2.58;;;;;;;27.03;49.91;100987.00;5007715;28;20089;-73
2021/09/10 10:48:28;;;;;;;4.03;2.50;;;;;;;26.97;49.91;100979.50;5010450;28;20057;-73
2021/09/10 10:50:57;;;;;;;4.40;2.60;;;;;;;26.97;50.21;100984.19;5014350;28;20049;-73
2021/09/10 10:53:24;;;;;;;3.95;2.50;;;;;;;26.93;50.03;100981.00;5009281;28;20482;-74
2021/09/10 10:55:50;;;;;;;4.50;2.40;;;;;;;26.92;50.15;100978.41;5012986;28;20463;-73
2021/09/10 10:58:27;;;;;;;5.03;2.70;;;;;;;26.94;51.22;100973.47;5012377;28;20139;-75
2021/09/10 11:01:02;;;;;;;3.85;2.40;;;;;;;26.91;50.94;100969.19;5011715;28;20093;-74
2021/09/10 11:03:31;;;;;;;4.93;2.70;;;;;;;26.86;50.77;100961.38;5010314;28;20054;-74
2021/09/10 11:06:27;;;;;;;4.35;2.78;;;;;;;26.86;51.46;100958.59;5004983;28;20050;-74
2021/09/10 11:08:55;;;;;;;4.47;3.00;;;;;;;26.85;51.28;100958.81;5004166;28;20061;-73
2021/09/10 11:11:25;;;;;;;4.07;2.47;;;;;;;26.88;50.94;100956.47;5007666;28;20051;-74
2021/09/10 11:13:52;;;;;;;3.95;2.63;;;;;;;26.86;50.95;100952.16;5002786;28;20066;-74
2021/09/10 11:16:30;;;;;;;5.40;3.10;;;;;;;26.92;51.58;100948.63;5010167;28;20050;-74
2021/09/10 11:18:57;;;;;;;4.75;2.83;;;;;;;26.92;51.54;100951.41;5017171;28;20053;-75
2021/09/10 11:21:29;;;;;;;6.13;3.15;;;;;;;27.02;51.66;100956.56;5009012;28;20057;-75
2021/09/10 11:24:05;;;;;;;5.18;3.20;;;;;;;27.00;51.59;100951.22;5007912;28;20060;-75
2021/09/10 11:26:36;;;;;;;5.32;2.88;;;;;;;27.09;51.67;100941.63;5007450;28;20086;-76
2021/09/10 11:29:09;;;;;;;4.55;3.13;;;;;;;27.13;51.13;100942.03;5009256;28;20077;-75
2021/09/10 11:31:36;;;;;;;3.75;2.75;;;;;;;27.12;51.44;100938.38;5010541;28;20092;-75
2021/09/10 11:34:03;;;;;;;4.13;2.60;;;;;;;27.16;51.11;100924.91;5008917;28;20783;-73